• Join FlightAware (Why Join?)
  • Login
  • US Flag 
11:41AM EDT


 

Airport Tracker/Info


-or-


 

Live Flight TrackerFlight Track Log ✈ N9202U ✈ 16-Jul-2013 ✈ KPWA - KSWO

Flight Track Log - Related Links

Times and Time Zones

All times are in EDT time to prevent confusion due to time zone crossing. See the N9202U flight status page for this flight to view local times or setup timezone preferences in your user account.

Time Position Orientation Groundspeed Altitude Reporting Facility
EDT Latitude Longitude Course Direction KTS MPH feet Rate Location/Type
10:38AM 35.5164 -97.6711 235° Southwest 104 120 2,400  Level Fort Worth Center
10:39AM 35.5436 -97.6839 339° North 105 121 3,000 600 Climbing Fort Worth Center
10:40AM 35.5644 -97.6917 343° North 98 113 3,500 540 Climbing Fort Worth Center
10:41AM 35.5872 -97.6842 15° North 90 104 4,000 420 Climbing Fort Worth Center
10:42AM 35.6083 -97.6639 38° Northeast 86 99 4,500 420 Climbing Fort Worth Center
10:43AM 35.6292 -97.6433 39° Northeast 90 104 5,000 240 Climbing Fort Worth Center
10:44AM 35.6500 -97.6206 42° Northeast 115 132 5,000  Level Fort Worth Center
10:45AM 35.6750 -97.5897 45° Northeast 117 135 5,000  Level Kansas City Center
10:46AM 35.7008 -97.5631 40° Northeast 121 139 5,000  Level Kansas City Center
10:47AM 35.7272 -97.5381 38° Northeast 120 138 5,000  Level Kansas City Center
10:48AM 35.7522 -97.5106 42° Northeast 121 139 5,000  Level Kansas City Center
10:49AM 35.7839 -97.4789 39° Northeast 121 139 5,000  Level Kansas City Center
10:50AM 35.8078 -97.4528 42° Northeast 118 136 5,000  Level Kansas City Center
10:51AM 35.8350 -97.4283 36° Northeast 120 138 5,000  Level Kansas City Center
10:52AM 35.8642 -97.4039 34° Northeast 125 144 5,000  Level Kansas City Center
10:53AM 35.8894 -97.3775 40° Northeast 120 138 5,000  Level Kansas City Center
10:54AM 35.9167 -97.3525 37° Northeast 122 140 5,000  Level Kansas City Center
10:55AM 35.9483 -97.3228 37° Northeast 120 138 5,000  Level Kansas City Center
10:56AM 35.9736 -97.2953 41° Northeast 121 139 5,000  Level Kansas City Center
10:57AM 36.0000 -97.2700 38° Northeast 120 138 5,000 -300 Level Kansas City Center
10:58AM 35.9886 -97.2431 118° Southeast 107 123 4,500 -660 Descending Kansas City Center
10:59AM 35.9700 -97.2189 134° Southeast 97 112 3,700 -720 Descending Kansas City Center
11:00AM 35.9550 -97.1869 120° Southeast 101 116 3,000 -360 Descending Kansas City Center
11:01AM 35.9469 -97.1492 105° East 98 113 3,000  Level Kansas City Center
11:02AM 35.9425 -97.1183 100° East 95 109 3,000 -240 Level Kansas City Center
11:04AM 35.9697 -97.1022 26° Northeast 107 123 2,600 -240 Descending Kansas City Center
11:05AM 36.0042 -97.0978 North 118 136 2,600  Level Kansas City Center
11:06AM 36.0383 -97.0961 North 121 139 2,600  Level Kansas City Center
11:07AM 36.0717 -97.0944 North 121 139 2,600 -420 Level Kansas City Center
11:08AM 36.1061 -97.0928 North 112 129 1,800 -540 Descending Kansas City Center
11:09AM 36.1322 -97.0878 North 107 123 1,500 -180 Descending Kansas City Center
11:10AM 36.1492 -97.0658 46° Northeast 108 124 1,500  Level Kansas City Center
11:11AM 36.1736 -97.0636 North 103 119 1,500  Level Kansas City Center
11:13AM 36.1500 -97.0833 238° Southwest  Level FlightAware Approximate
11:20AM 36.1614 -97.0859 238° Southwest  Level Estimated